Time;durP1;ratioP1;P1;durP2;ratioP2;P2;SDS_P1;SDS_P2;PMS_P1;PMS_P2;Temp;Humidity;BMP_temperature;BMP_pressure;BME280_temperature;BME280_humidity;BME280_pressure;Samples;Min_cycle;Max_cycle;Signal;HPM_P1;HPM_P2
2023/10/12 00:02:53;;;;;;;8.10;3.20;;;;;;;11.01;63.07;98997.05;108893;1261;74330;-22
2023/10/12 00:05:20;;;;;;;6.30;3.40;;;;;;;10.98;63.49;98993.52;108908;1261;71434;-21
2023/10/12 00:07:49;;;;;;;7.60;3.60;;;;;;;10.96;63.61;98994.42;108838;1263;60032;-22
2023/10/12 00:12:45;;;;;;;6.50;3.20;;;;;;;10.91;63.89;98985.84;108823;1263;73847;-21
2023/10/12 00:15:23;;;;;;;14.90;3.40;;;;;;;10.88;64.16;98984.29;108870;1262;74319;-22
2023/10/12 00:17:59;;;;;;;7.50;3.30;;;;;;;10.87;64.47;98988.17;108837;1263;71492;-22
2023/10/12 00:23:10;;;;;;;4.20;3.00;;;;;;;10.80;64.89;98979.89;108858;1263;60022;-22
2023/10/12 00:25:45;;;;;;;7.40;3.70;;;;;;;10.78;65.47;98973.13;108847;1267;72305;-22
2023/10/12 00:28:19;;;;;;;7.00;3.50;;;;;;;10.79;65.48;98973.80;108806;1263;74324;-22
2023/10/12 00:30:57;;;;;;;8.80;2.90;;;;;;;10.77;65.53;98974.98;108829;1263;71800;-22
2023/10/12 00:33:25;;;;;;;8.80;3.30;;;;;;;10.76;65.99;98972.48;108798;1262;60121;-22
2023/10/12 00:36:00;;;;;;;7.20;3.30;;;;;;;10.75;65.89;98978.04;108789;1263;58808;-23
2023/10/12 00:38:31;;;;;;;7.10;3.90;;;;;;;10.76;66.16;98973.82;108721;1263;72159;-22
2023/10/12 00:41:03;;;;;;;6.40;3.40;;;;;;;10.74;66.61;98977.48;108921;1262;73641;-21
2023/10/12 00:43:37;;;;;;;7.40;3.80;;;;;;;10.72;66.72;98980.92;108783;1263;72744;-22
2023/10/12 00:49:14;;;;;;;7.60;3.40;;;;;;;10.68;67.45;98977.04;108844;1263;60297;-22
2023/10/12 00:51:51;;;;;;;7.80;2.60;;;;;;;10.75;67.30;98968.17;108789;1263;72649;-21
2023/10/12 00:54:41;;;;;;;6.60;2.60;;;;;;;11.29;66.12;98968.34;108753;1263;73301;-22
2023/10/12 00:57:09;;;;;;;9.40;3.50;;;;;;;11.57;64.75;98973.41;108720;1263;72759;-21
2023/10/12 00:59:37;;;;;;;7.30;3.20;;;;;;;11.54;64.74;98973.35;108810;1262;60246;-22
2023/10/12 01:02:08;;;;;;;7.90;3.20;;;;;;;11.52;64.87;98979.92;108723;1261;59361;-22
2023/10/12 01:04:36;;;;;;;9.40;3.10;;;;;;;11.36;65.40;98972.92;108823;1263;73875;-22
2023/10/12 01:07:06;;;;;;;7.80;3.20;;;;;;;11.23;65.53;98973.75;108772;1262;74452;-22
2023/10/12 01:09:42;;;;;;;4.90;3.20;;;;;;;11.04;66.77;98981.02;108755;1263;71859;-22
2023/10/12 01:12:13;;;;;;;8.50;3.40;;;;;;;10.94;67.23;98973.89;108774;1262;58878;-22
2023/10/12 01:14:47;;;;;;;6.20;3.60;;;;;;;10.84;67.69;98970.23;108767;1263;59002;-22
2023/10/12 01:17:23;;;;;;;8.80;3.80;;;;;;;10.76;68.10;98972.62;108788;1262;72647;-21
2023/10/12 01:19:52;;;;;;;6.90;3.40;;;;;;;10.68;68.58;98968.23;108844;1263;74484;-22
2023/10/12 01:22:25;;;;;;;10.50;3.60;;;;;;;10.65;68.93;98964.33;108752;1267;71464;-22
2023/10/12 01:27:22;;;;;;;6.40;3.50;;;;;;;10.56;69.40;98964.33;108891;1263;60125;-22
2023/10/12 01:29:50;;;;;;;8.50;3.10;;;;;;;10.93;68.29;98959.88;108722;1263;73860;-22
2023/10/12 01:34:52;;;;;;;5.30;2.90;;;;;;;11.21;67.29;98956.19;108705;1263;72825;-22
2023/10/12 01:37:21;;;;;;;7.10;3.50;;;;;;;11.10;67.57;98956.58;108811;1262;59175;-22
2023/10/12 01:45:40;;;;;;;6.60;3.90;;;;;;;10.66;69.81;98950.71;108695;1263;74329;-22
2023/10/12 01:48:11;;;;;;;9.80;3.80;;;;;;;10.54;70.14;98950.15;108780;1263;71745;-22
2023/10/12 01:50:39;;;;;;;10.90;3.90;;;;;;;10.43;71.09;98947.74;108766;1262;60097;-22
2023/10/12 01:55:54;;;;;;;5.90;3.90;;;;;;;10.90;69.99;98940.20;108792;1261;73873;-22
2023/10/12 01:58:31;;;;;;;7.70;4.00;;;;;;;11.14;68.89;98938.66;108686;1263;74334;-22
2023/10/12 02:01:07;;;;;;;13.50;4.00;;;;;;;11.08;68.97;98938.88;108796;1263;71475;-22
2023/10/12 02:03:42;;;;;;;6.70;4.10;;;;;;;10.91;69.59;98938.86;108804;1262;58826;-22
2023/10/12 02:06:19;;;;;;;13.70;4.40;;;;;;;10.78;70.18;98937.73;108814;1263;60059;-22
2023/10/12 02:08:52;;;;;;;8.40;4.20;;;;;;;10.61;71.08;98934.23;108781;1263;73822;-22
2023/10/12 02:13:54;;;;;;;9.60;4.00;;;;;;;10.49;71.70;98927.97;108681;1263;72765;-22
2023/10/12 02:16:30;;;;;;;7.60;3.60;;;;;;;10.43;72.41;98923.77;108654;1263;60411;-22
2023/10/12 02:19:07;;;;;;;11.70;3.60;;;;;;;10.93;71.19;98924.26;108691;1263;58804;-22
2023/10/12 02:21:38;;;;;;;9.50;4.40;;;;;;;11.18;70.10;98925.28;108766;1263;73870;-22
2023/10/12 02:26:52;;;;;;;12.70;4.40;;;;;;;11.04;70.52;98923.53;108672;1263;72634;-22
2023/10/12 02:29:23;;;;;;;11.30;4.70;;;;;;;10.98;71.03;98923.54;108756;1268;60138;-22
2023/10/12 02:34:41;;;;;;;12.00;4.30;;;;;;;10.67;72.60;98925.73;108452;1269;72575;-21
2023/10/12 02:39:41;;;;;;;11.30;3.70;;;;;;;10.73;73.04;98922.67;108226;1267;71941;-22
2023/10/12 02:47:29;;;;;;;11.60;5.20;;;;;;;11.05;71.64;98919.12;108283;1267;73991;-22
2023/10/12 02:50:28;;;;;;;9.20;5.00;;;;;;;10.90;72.43;98918.45;108224;1267;73123;-22
2023/10/12 02:52:52;;;;;;;7.60;4.20;;;;;;;10.77;73.20;98915.54;108272;1267;72711;-22
2023/10/12 02:57:55;;;;;;;9.70;4.30;;;;;;;10.64;74.18;98911.95;108144;1269;58753;-22
2023/10/12 03:00:43;;;;;;;9.70;4.50;;;;;;;11.00;73.25;98907.04;108693;1263;72591;-22
2023/10/12 03:05:54;;;;;;;14.00;4.30;;;;;;;11.19;72.55;98909.46;108718;1268;72688;-22
2023/10/12 03:16:15;;;;;;;7.30;4.30;;;;;;;10.83;74.22;98904.64;102653;1295;600217;-21
2023/10/12 03:18:43;;;;;;;9.60;3.90;;;;;;;11.21;73.42;98902.98;104820;1273;61647;-22
2023/10/12 03:21:11;;;;;;;7.60;4.30;;;;;;;11.33;72.72;98903.51;104888;1266;61187;-21
2023/10/12 03:23:48;;;;;;;7.60;4.30;;;;;;;11.27;73.04;98903.03;104841;1268;71043;-21
2023/10/12 03:26:26;;;;;;;13.80;4.90;;;;;;;11.07;73.43;98899.48;104835;1264;74291;-21
2023/10/12 03:36:36;;;;;;;8.60;4.60;;;;;;;11.45;72.86;98896.27;102648;1293;600054;-21
2023/10/12 03:39:13;;;;;;;11.50;4.80;;;;;;;11.32;73.09;98893.55;104894;1269;61292;-21
2023/10/12 03:49:32;;;;;;;10.10;3.90;;;;;;;11.10;74.81;98890.59;102761;1295;600110;-21
2023/10/12 03:52:02;;;;;;;10.00;3.90;;;;;;;11.32;73.74;98884.30;104846;1270;61222;-23
2023/10/12 03:54:30;;;;;;;7.60;4.40;;;;;;;11.37;73.31;98883.21;104887;1264;61162;-22
2023/10/12 03:57:07;;;;;;;9.00;4.20;;;;;;;11.15;74.08;98883.00;104897;1266;71019;-22
2023/10/12 03:59:44;;;;;;;10.80;4.50;;;;;;;11.03;74.90;98880.24;104849;1264;74399;-22
2023/10/12 04:02:15;;;;;;;9.50;3.80;;;;;;;10.86;75.70;98875.71;102831;1264;3144370;-23
2023/10/12 04:04:53;;;;;;;10.20;4.40;;;;;;;10.99;75.75;98876.34;105106;1262;61163;-22
2023/10/12 04:15:27;;;;;;;10.70;4.80;;;;;;;11.08;75.56;98874.95;102520;1292;600141;-21
2023/10/12 04:17:59;;;;;;;8.00;3.80;;;;;;;10.93;76.20;98875.99;104897;1266;61187;-21
2023/10/12 04:47:11;;;;;;;9.80;5.20;;;;;;;11.09;76.18;98876.20;104838;1267;72187;-23
2023/10/12 04:57:33;;;;;;;10.10;5.40;;;;;;;11.48;75.11;98868.49;104906;1269;61208;-23
2023/10/12 05:00:16;;;;;;;10.10;5.10;;;;;;;11.29;75.99;98862.13;104890;1264;72230;-23
2023/10/12 05:06:04;;;;;;;10.00;3.90;;;;;;;11.08;77.09;98864.15;105141;1264;72759;-23
2023/10/12 05:08:05;;;;;;;12.00;5.20;;;;;;;11.40;76.01;98861.90;105068;1264;61157;-23
2023/10/12 05:13:05;;;;;;;10.70;4.90;;;;;;;11.42;75.34;98861.73;105216;1264;73382;-23
2023/10/12 05:15:39;;;;;;;12.40;5.40;;;;;;;11.19;76.51;98865.42;104863;1264;74316;-23
2023/10/12 05:18:07;;;;;;;9.00;5.10;;;;;;;11.11;77.08;98870.96;104921;1269;72628;-23
2023/10/12 05:20:35;;;;;;;10.10;5.20;;;;;;;11.13;77.29;98871.33;104776;1264;61629;-23
2023/10/12 05:23:02;;;;;;;11.20;5.70;;;;;;;11.52;75.84;98873.58;104885;1267;61175;-23
2023/10/12 05:25:48;;;;;;;10.20;5.80;;;;;;;11.64;75.02;98876.34;105041;1264;73304;-23
2023/10/12 05:28:17;;;;;;;7.90;5.30;;;;;;;11.60;74.87;98876.19;105171;1264;74301;-22
2023/10/12 05:30:50;;;;;;;12.00;5.60;;;;;;;11.46;75.59;98871.16;104868;1264;72430;-22
2023/10/12 05:33:38;;;;;;;9.90;4.90;;;;;;;11.40;76.09;98871.15;104896;1264;61965;-22
2023/10/12 05:36:13;;;;;;;9.60;5.20;;;;;;;11.79;74.97;98871.02;104839;1264;61288;-22
2023/10/12 05:38:48;;;;;;;12.70;5.80;;;;;;;11.90;74.19;98867.42;105031;1260;73094;-23
2023/10/12 05:41:21;;;;;;;8.10;4.90;;;;;;;11.90;74.21;98869.02;105136;1260;74195;-22
2023/10/12 05:43:48;;;;;;;12.80;8.00;;;;;;;11.82;74.64;98873.84;104875;1265;72750;-22
2023/10/12 05:46:15;;;;;;;12.40;6.70;;;;;;;11.82;74.75;98876.80;105043;1260;61160;-22
2023/10/12 05:48:46;;;;;;;10.20;4.90;;;;;;;11.85;74.69;98876.41;105179;1264;61102;-23
2023/10/12 05:51:15;;;;;;;13.90;5.90;;;;;;;12.27;73.58;98873.86;105154;1260;73019;-23
2023/10/12 05:53:42;;;;;;;12.30;4.70;;;;;;;12.66;72.19;98873.45;105284;1261;74138;-23
2023/10/12 05:56:08;;;;;;;12.10;5.40;;;;;;;12.62;71.79;98875.36;105177;1260;72623;-23
2023/10/12 05:58:40;;;;;;;11.80;5.40;;;;;;;12.65;71.84;98878.05;105178;1266;61055;-23
2023/10/12 06:01:08;;;;;;;9.90;4.90;;;;;;;12.62;72.19;98880.45;105573;1257;61249;-23
2023/10/12 06:03:39;;;;;;;12.50;4.80;;;;;;;12.56;72.69;98879.81;105421;1257;73004;-22
2023/10/12 06:06:09;;;;;;;9.50;4.30;;;;;;;12.70;72.47;98878.80;105135;1258;73369;-23
2023/10/12 06:08:37;;;;;;;8.50;4.60;;;;;;;13.18;70.93;98870.52;105192;1258;72744;-23
2023/10/12 06:11:07;;;;;;;11.10;4.80;;;;;;;13.40;70.13;98869.14;105367;1257;61220;-23
2023/10/12 06:13:41;;;;;;;9.40;4.40;;;;;;;13.47;69.65;98868.11;105155;1262;61135;-23
2023/10/12 06:16:14;;;;;;;6.50;4.60;;;;;;;13.38;69.72;98864.95;105264;1257;71705;-23
2023/10/12 06:18:44;;;;;;;10.40;4.00;;;;;;;13.35;70.20;98862.08;105574;1262;73136;-23
2023/10/12 06:21:17;;;;;;;11.10;4.70;;;;;;;13.28;70.54;98864.05;105573;1257;72547;-22
2023/10/12 06:23:50;;;;;;;6.00;3.90;;;;;;;13.26;70.78;98862.16;105500;1262;61204;-23
2023/10/12 06:26:48;;;;;;;5.70;4.00;;;;;;;13.47;70.38;98859.81;102625;1295;600162;-21
2023/10/12 06:29:25;;;;;;;8.90;4.50;;;;;;;13.81;69.02;98869.02;104834;1267;61282;-21
2023/10/12 06:31:54;;;;;;;12.30;4.20;;;;;;;13.82;68.63;98863.20;104829;1270;61113;-21
2023/10/12 06:34:23;;;;;;;8.50;4.60;;;;;;;13.73;68.85;98861.60;104548;1272;72226;-24
2023/10/12 06:36:58;;;;;;;14.70;4.80;;;;;;;13.75;69.19;98861.27;104771;1267;73087;-21
2023/10/12 06:46:49;;;;;;;9.50;3.80;;;;;;;14.19;68.68;98857.32;104798;1268;72185;-22
2023/10/12 06:49:21;;;;;;;8.40;4.10;;;;;;;14.65;66.89;98850.17;104797;1270;74300;-21
2023/10/12 06:52:03;;;;;;;7.60;4.30;;;;;;;14.77;66.30;98847.89;104673;1267;72687;-22
2023/10/12 06:59:53;;;;;;;12.20;4.10;;;;;;;14.81;66.03;98850.46;105632;1259;73020;-22
2023/10/12 07:10:28;;;;;;;9.50;4.50;;;;;;;14.98;65.94;98858.39;102723;1295;600090;-22
2023/10/12 07:12:49;;;;;;;7.80;4.20;;;;;;;15.01;65.51;98859.02;105032;1269;61183;-21
2023/10/12 07:15:20;;;;;;;9.20;4.40;;;;;;;15.10;65.52;98859.08;104868;1264;61177;-21
2023/10/12 07:17:51;;;;;;;12.30;4.40;;;;;;;15.21;64.99;98847.91;104889;1271;70959;-21
2023/10/12 07:23:20;;;;;;;9.40;4.10;;;;;;;15.21;64.65;98845.55;102472;1264;3102194;-22
2023/10/12 07:25:49;;;;;;;5.40;3.50;;;;;;;15.29;64.58;98850.64;104975;1267;61837;-22
2023/10/12 07:36:06;;;;;;;8.50;4.00;;;;;;;15.75;63.68;98849.69;102670;1291;599978;-21
2023/10/12 07:38:37;;;;;;;7.70;3.70;;;;;;;15.81;63.26;98842.25;104809;1268;61161;-21
2023/10/12 07:41:05;;;;;;;6.80;3.40;;;;;;;15.86;62.76;98839.96;104845;1263;61071;-21
2023/10/12 07:43:32;;;;;;;7.20;4.20;;;;;;;15.97;62.15;98840.59;104877;1264;70990;-21
2023/10/12 07:54:00;;;;;;;7.10;3.70;;;;;;;16.50;60.54;98828.58;102457;1293;615735;-23
2023/10/12 07:56:33;;;;;;;13.10;3.90;;;;;;;16.63;60.29;98816.64;104828;1267;61097;-23
2023/10/12 07:59:00;;;;;;;10.40;4.20;;;;;;;16.76;59.88;98816.27;104837;1273;61208;-23
2023/10/12 08:04:00;;;;;;;10.60;4.50;;;;;;;17.03;58.82;98820.61;104934;1270;74289;-23
2023/10/12 08:09:21;;;;;;;;;;;;;;;17.14;58.07;98820.42;105195;1267;61074;-23
2023/10/12 08:11:48;;;;;;;9.50;3.70;;;;;;;17.01;58.37;98819.27;104957;1265;61086;-23
2023/10/12 08:19:41;;;;;;;11.80;4.40;;;;;;;17.47;57.14;98807.08;104816;1270;72487;-23
2023/10/12 08:22:17;;;;;;;10.50;4.50;;;;;;;17.65;56.76;98813.83;104874;1267;61128;-23
2023/10/12 08:24:46;;;;;;;7.40;3.80;;;;;;;17.79;56.30;98813.27;104728;1270;61308;-24
2023/10/12 08:27:13;;;;;;;13.40;5.00;;;;;;;17.89;55.67;98806.35;104877;1267;73093;-23
2023/10/12 08:39:51;;;;;;;8.90;3.90;;;;;;;18.72;53.81;98796.58;105281;1264;73082;-23
2023/10/12 08:44:58;;;;;;;14.20;3.80;;;;;;;18.91;53.17;98792.31;105069;1261;73187;-23
2023/10/12 08:47:31;;;;;;;6.00;3.60;;;;;;;19.00;52.63;98791.93;105035;1269;61326;-23
2023/10/12 08:50:25;;;;;;;7.80;3.30;;;;;;;19.09;52.48;98794.99;105075;1266;61214;-23
2023/10/12 08:52:52;;;;;;;14.60;3.50;;;;;;;19.06;52.39;98783.11;105123;1268;72962;-23
2023/10/12 08:55:24;;;;;;;6.10;3.40;;;;;;;19.18;51.63;98783.25;105120;1263;74811;-23
2023/10/12 08:58:18;;;;;;;11.80;3.60;;;;;;;19.13;51.38;98780.21;105169;1264;73052;-23
2023/10/12 09:01:07;;;;;;;6.30;3.60;;;;;;;19.07;51.94;98792.08;105114;1267;61027;-23
2023/10/12 09:03:38;;;;;;;7.00;2.70;;;;;;;19.01;52.13;98792.59;104816;1276;61257;-23
2023/10/12 09:06:39;;;;;;;7.60;3.70;;;;;;;19.02;52.14;98789.27;105147;1260;73080;-24
2023/10/12 09:09:06;;;;;;;7.80;3.50;;;;;;;19.19;52.04;98781.09;105290;1266;74331;-23
2023/10/12 09:11:33;;;;;;;11.90;4.00;;;;;;;19.25;51.47;98778.96;105081;1265;72468;-23
2023/10/12 09:14:11;;;;;;;9.50;3.80;;;;;;;19.25;51.49;98785.09;105174;1261;61069;-23
2023/10/12 09:16:38;;;;;;;8.50;3.40;;;;;;;19.25;51.37;98781.30;105250;1261;60994;-23
2023/10/12 09:19:23;;;;;;;10.00;3.40;;;;;;;19.31;51.05;98780.14;105279;1265;74581;-23
2023/10/12 09:21:58;;;;;;;10.50;4.00;;;;;;;19.10;51.39;98781.52;105220;1266;73044;-23
2023/10/12 09:24:28;;;;;;;9.30;3.40;;;;;;;19.11;51.65;98783.12;105191;1265;73287;-23
2023/10/12 09:26:59;;;;;;;9.20;3.90;;;;;;;19.11;51.33;98777.47;105147;1261;61046;-23
2023/10/12 09:29:31;;;;;;;12.10;3.70;;;;;;;19.25;51.39;98773.23;104896;1260;61184;-23
2023/10/12 09:37:43;;;;;;;9.40;3.60;;;;;;;19.36;50.70;98765.86;105300;1264;72555;-23
2023/10/12 09:40:27;;;;;;;6.00;3.40;;;;;;;19.38;50.58;98761.90;105261;1259;61156;-23
2023/10/12 09:42:59;;;;;;;8.70;3.30;;;;;;;19.37;50.55;98766.40;105119;1264;61125;-23
2023/10/12 09:45:27;;;;;;;8.70;3.50;;;;;;;19.36;50.27;98748.61;105184;1265;72749;-23
2023/10/12 09:48:05;;;;;;;9.30;3.50;;;;;;;19.28;50.12;98750.79;105402;1267;74378;-23
2023/10/12 09:50:34;;;;;;;6.40;3.60;;;;;;;19.23;50.27;98742.27;105253;1265;71539;-23
2023/10/12 09:53:12;;;;;;;7.30;3.10;;;;;;;19.14;50.57;98743.65;105624;1258;61248;-23
2023/10/12 09:55:45;;;;;;;9.20;2.60;;;;;;;19.08;50.92;98745.48;105564;1262;61703;-23
2023/10/12 10:11:11;;;;;;;6.50;2.90;;;;;;;19.15;50.37;98706.02;105368;1258;61071;-22
2023/10/12 10:13:40;;;;;;;13.80;3.20;;;;;;;19.33;50.17;98711.16;105515;1262;61097;-22
2023/10/12 10:16:09;;;;;;;7.10;3.60;;;;;;;19.46;50.07;98706.35;105109;1259;72938;-22
2023/10/12 10:18:52;;;;;;;10.70;2.90;;;;;;;19.53;49.62;98701.94;105319;1263;72251;-22
2023/10/12 10:21:22;;;;;;;;;;;;;;;19.84;49.15;98701.42;105192;1263;72617;-23
2023/10/12 10:23:54;;;;;;;6.90;3.10;;;;;;;20.26;48.20;98691.66;105233;1263;61203;-22
2023/10/12 10:26:27;;;;;;;6.60;2.10;;;;;;;20.25;47.42;98694.88;105279;1266;61164;-22
2023/10/12 10:29:17;;;;;;;5.70;2.80;;;;;;;20.13;48.00;98699.45;105300;1265;73119;-22
2023/10/12 10:31:43;;;;;;;9.80;3.10;;;;;;;20.60;47.04;98693.98;105146;1258;74210;-22
2023/10/12 10:34:14;;;;;;;6.60;2.60;;;;;;;20.79;46.59;98684.85;105135;1257;72777;-22
2023/10/12 10:36:44;;;;;;;8.20;2.80;;;;;;;21.16;46.05;98689.18;105095;1257;61153;-22
2023/10/12 10:44:22;;;;;;;6.20;3.30;;;;;;;20.99;45.91;98671.89;105282;1263;74822;-23
2023/10/12 10:46:54;;;;;;;7.20;3.00;;;;;;;21.21;45.69;98668.16;105094;1264;72433;-22
2023/10/12 10:49:21;;;;;;;5.40;2.60;;;;;;;21.36;45.22;98658.39;105059;1263;61089;-22
2023/10/12 10:52:13;;;;;;;8.60;2.60;;;;;;;21.43;45.00;98654.98;105253;1257;61179;-22
2023/10/12 10:54:41;;;;;;;10.40;3.00;;;;;;;21.19;44.90;98655.98;105175;1263;72996;-23
2023/10/12 10:57:15;;;;;;;11.70;3.00;;;;;;;20.97;45.47;98654.14;105005;1265;73581;-22
2023/10/12 10:59:43;;;;;;;8.40;3.10;;;;;;;21.22;45.28;98647.72;105111;1261;73988;-22
2023/10/12 11:02:14;;;;;;;11.20;3.60;;;;;;;21.40;44.76;98648.42;105065;1263;61020;-22
2023/10/12 11:04:44;;;;;;;8.70;2.60;;;;;;;21.27;44.65;98640.34;105131;1264;61726;-22
2023/10/12 11:07:17;;;;;;;6.80;2.90;;;;;;;21.28;44.61;98641.97;105079;1264;74043;-23
2023/10/12 11:10:19;;;;;;;10.60;4.50;;;;;;;21.41;44.47;98643.80;105177;1275;75845;-22
2023/10/12 11:12:38;;;;;;;8.00;3.10;;;;;;;21.31;44.40;98640.86;105141;1263;73199;-22
2023/10/12 11:15:12;;;;;;;7.30;2.40;;;;;;;21.50;44.26;98643.45;105403;1258;61186;-22
2023/10/12 11:17:56;;;;;;;7.30;2.80;;;;;;;21.54;44.04;98636.61;105196;1264;61106;-23
2023/10/12 11:20:40;;;;;;;6.10;2.50;;;;;;;21.77;43.50;98637.89;105199;1261;72264;-22
2023/10/12 11:23:10;;;;;;;9.40;3.00;;;;;;;21.96;43.36;98629.50;105548;1257;74674;-22
2023/10/12 11:25:41;;;;;;;6.00;2.70;;;;;;;22.24;42.72;98628.04;105393;1262;72745;-22
2023/10/12 11:28:19;;;;;;;4.50;2.30;;;;;;;22.43;42.53;98630.24;105179;1256;61141;-23
2023/10/12 11:30:46;;;;;;;9.30;2.60;;;;;;;22.53;42.25;98624.08;105128;1266;61185;-22
2023/10/12 11:33:16;;;;;;;8.50;3.10;;;;;;;22.52;41.95;98615.95;105189;1263;73004;-22
2023/10/12 11:35:43;;;;;;;7.30;3.30;;;;;;;22.20;42.12;98605.98;105296;1263;73234;-22
2023/10/12 11:38:17;;;;;;;8.20;2.90;;;;;;;22.12;42.67;98613.62;105532;1258;71935;-22
2023/10/12 11:40:48;;;;;;;8.40;3.10;;;;;;;22.17;42.53;98614.12;105146;1263;61125;-23
2023/10/12 11:43:15;;;;;;;8.30;2.50;;;;;;;22.11;42.64;98615.61;105096;1264;61125;-22
2023/10/12 11:46:01;;;;;;;12.90;3.00;;;;;;;22.26;42.72;98618.81;105248;1263;73156;-23
2023/10/12 11:48:30;;;;;;;12.20;3.10;;;;;;;22.50;42.33;98620.99;105235;1258;72936;-22
2023/10/12 11:50:57;;;;;;;6.50;2.40;;;;;;;22.55;42.17;98617.20;105171;1263;72757;-23
2023/10/12 11:53:25;;;;;;;8.40;3.00;;;;;;;22.56;42.04;98616.73;105208;1260;61071;-22
2023/10/12 11:56:08;;;;;;;14.60;3.00;;;;;;;22.44;42.04;98610.98;105199;1260;61109;-22
2023/10/12 11:58:35;;;;;;;9.30;2.50;;;;;;;22.38;41.96;98610.91;105223;1264;74514;-22
2023/10/12 12:01:02;;;;;;;5.40;2.50;;;;;;;22.45;42.02;98614.66;105360;1263;74052;-22
2023/10/12 12:03:37;;;;;;;7.20;2.70;;;;;;;22.58;41.94;98616.38;105284;1257;72611;-23
2023/10/12 12:06:09;;;;;;;7.20;2.50;;;;;;;22.66;41.36;98607.21;105193;1257;61055;-22
2023/10/12 12:08:40;;;;;;;7.00;2.80;;;;;;;22.61;41.58;98612.51;105239;1260;61035;-22
2023/10/12 12:11:09;;;;;;;10.60;2.50;;;;;;;22.78;41.66;98614.33;105379;1260;74220;-22
2023/10/12 12:13:42;;;;;;;7.00;2.60;;;;;;;22.79;41.25;98599.00;105126;1257;74895;-23
2023/10/12 12:16:10;;;;;;;;;;;;;;;22.86;41.21;98605.15;105182;1263;72676;-22
2023/10/12 12:18:37;;;;;;;8.80;2.30;;;;;;;22.68;41.26;98598.10;105158;1257;61162;-22
2023/10/12 12:21:14;;;;;;;7.40;2.70;;;;;;;22.59;41.68;98589.99;105105;1262;61119;-22
2023/10/12 12:23:41;;;;;;;8.90;2.30;;;;;;;22.73;41.55;98589.29;105268;1257;74077;-22
2023/10/12 12:26:09;;;;;;;13.50;2.70;;;;;;;22.78;41.28;98581.90;105203;1258;76173;-22
2023/10/12 12:28:43;;;;;;;8.70;2.80;;;;;;;22.90;41.18;98575.89;105205;1263;72600;-22
2023/10/12 12:31:13;;;;;;;;;;;;;;;22.94;41.17;98576.83;105116;1263;61202;-22
2023/10/12 12:33:44;;;;;;;9.80;2.70;;;;;;;22.94;40.88;98566.83;105114;1263;61897;-22
2023/10/12 12:36:21;;;;;;;11.30;2.90;;;;;;;22.90;41.10;98570.98;105197;1257;73448;-23
2023/10/12 12:38:52;;;;;;;8.80;2.30;;;;;;;22.88;41.36;98571.54;105103;1258;74345;-24
2023/10/12 12:41:19;;;;;;;8.40;2.50;;;;;;;22.87;41.31;98568.80;105112;1263;72669;-23
2023/10/12 12:43:47;;;;;;;6.50;2.50;;;;;;;22.83;41.52;98564.70;105182;1263;61071;-23
2023/10/12 12:46:14;;;;;;;6.70;2.60;;;;;;;23.00;41.09;98560.19;105212;1260;61183;-23
2023/10/12 12:48:45;;;;;;;9.20;2.60;;;;;;;22.96;41.07;98558.17;105616;1263;74093;-23
2023/10/12 12:51:15;;;;;;;9.70;2.80;;;;;;;23.00;40.86;98542.38;105566;1258;74425;-23
2023/10/12 12:53:46;;;;;;;6.10;2.40;;;;;;;22.96;40.53;98537.61;105306;1263;72580;-24
2023/10/12 12:56:14;;;;;;;9.80;2.70;;;;;;;23.03;40.00;98533.98;105522;1257;61175;-24
2023/10/12 12:58:46;;;;;;;7.70;2.20;;;;;;;23.03;39.67;98533.12;105105;1266;61109;-23
2023/10/12 13:01:17;;;;;;;8.40;2.30;;;;;;;22.92;39.90;98540.64;105101;1257;75078;-21
2023/10/12 13:03:45;;;;;;;3.80;2.00;;;;;;;22.71;40.37;98525.48;105127;1262;74352;-21
2023/10/12 13:06:14;;;;;;;6.10;1.80;;;;;;;22.60;40.76;98530.11;105205;1261;72582;-21
2023/10/12 13:08:42;;;;;;;6.60;2.50;;;;;;;22.55;40.96;98538.27;105173;1262;61771;-21
2023/10/12 13:11:09;;;;;;;6.50;1.80;;;;;;;22.75;40.73;98536.48;105210;1261;61760;-21
2023/10/12 13:13:39;;;;;;;5.60;2.00;;;;;;;22.92;40.48;98531.93;105129;1257;74216;-22
2023/10/12 13:16:12;;;;;;;10.60;2.50;;;;;;;22.97;40.38;98534.02;105114;1257;74313;-21
2023/10/12 13:18:48;;;;;;;10.00;2.00;;;;;;;23.02;40.22;98531.79;105067;1263;73477;-24
2023/10/12 13:21:16;;;;;;;7.60;2.40;;;;;;;23.05;40.09;98531.42;105013;1266;61142;-21
2023/10/12 13:23:44;;;;;;;9.40;2.40;;;;;;;23.06;39.86;98523.98;105099;1264;61541;-21
2023/10/12 13:26:13;;;;;;;4.60;2.20;;;;;;;23.04;39.94;98527.27;105281;1263;72466;-21
2023/10/12 13:28:44;;;;;;;12.00;2.90;;;;;;;23.01;40.00;98527.17;105199;1258;75340;-21
2023/10/12 13:31:11;;;;;;;4.90;2.20;;;;;;;23.00;40.29;98530.01;105275;1257;72428;-24
2023/10/12 13:33:41;;;;;;;6.60;2.20;;;;;;;22.85;40.53;98520.92;105183;1257;61111;-24
2023/10/12 13:36:10;;;;;;;4.90;2.50;;;;;;;22.83;40.79;98532.09;105194;1257;61183;-24
2023/10/12 13:38:37;;;;;;;15.60;2.70;;;;;;;22.75;40.67;98524.23;105115;1264;72470;-24
2023/10/12 13:41:05;;;;;;;7.70;2.40;;;;;;;22.59;40.89;98530.88;105103;1264;74372;-24
2023/10/12 13:43:34;;;;;;;6.10;2.50;;;;;;;22.46;40.95;98527.60;105104;1260;72559;-24
2023/10/12 13:46:12;;;;;;;9.00;2.80;;;;;;;22.42;41.31;98536.06;105109;1265;61778;-23
2023/10/12 13:48:40;;;;;;;10.00;3.00;;;;;;;22.46;41.26;98532.15;105144;1266;61202;-23
2023/10/12 13:51:17;;;;;;;9.00;2.40;;;;;;;22.46;41.24;98527.52;105270;1263;73707;-23
2023/10/12 13:53:46;;;;;;;5.00;2.30;;;;;;;22.48;41.21;98528.52;105301;1257;74132;-23
2023/10/12 13:56:13;;;;;;;8.90;2.50;;;;;;;22.45;41.28;98525.70;105414;1258;74067;-23
2023/10/12 13:58:41;;;;;;;7.30;2.60;;;;;;;22.43;41.36;98520.02;105224;1258;61099;-23
2023/10/12 14:01:14;;;;;;;5.40;2.00;;;;;;;22.38;41.51;98519.35;105114;1263;61176;-23
2023/10/12 14:03:45;;;;;;;5.40;2.30;;;;;;;22.36;41.49;98526.63;105216;1257;75517;-24
2023/10/12 14:06:12;;;;;;;12.50;2.90;;;;;;;22.32;41.69;98528.00;105126;1257;73767;-23
2023/10/12 14:08:42;;;;;;;6.20;2.20;;;;;;;22.29;41.88;98533.27;105649;1258;72578;-23
2023/10/12 14:11:13;;;;;;;6.70;2.30;;;;;;;22.30;41.98;98536.23;105424;1258;61059;-23
2023/10/12 14:13:40;;;;;;;10.10;3.20;;;;;;;22.22;42.12;98534.31;105119;1267;61219;-24
2023/10/12 14:16:10;;;;;;;9.00;2.40;;;;;;;22.18;42.22;98534.33;105040;1257;72949;-23
2023/10/12 14:18:38;;;;;;;9.70;2.80;;;;;;;22.15;42.38;98536.09;105035;1257;74229;-23
2023/10/12 14:21:10;;;;;;;12.20;2.80;;;;;;;22.11;42.54;98531.35;105214;1257;72764;-23
2023/10/12 14:23:43;;;;;;;8.80;3.00;;;;;;;22.06;42.57;98531.88;105125;1258;61051;-23
2023/10/12 14:26:11;;;;;;;;;;;;;;;22.02;42.91;98535.20;105073;1264;61256;-21
2023/10/12 14:28:41;;;;;;;6.20;2.40;;;;;;;22.03;43.01;98537.29;105295;1262;73912;-23
2023/10/12 14:31:08;;;;;;;8.60;2.90;;;;;;;22.01;43.20;98536.80;105119;1264;74452;-23
2023/10/12 14:33:36;;;;;;;7.60;2.50;;;;;;;21.93;43.21;98526.65;105236;1261;72820;-23
2023/10/12 14:36:05;;;;;;;9.00;2.60;;;;;;;21.82;43.35;98530.90;105188;1258;61274;-23
2023/10/12 14:38:35;;;;;;;7.20;2.40;;;;;;;21.80;43.53;98534.61;105168;1257;61113;-23
2023/10/12 14:41:09;;;;;;;6.60;2.30;;;;;;;21.75;43.85;98533.33;105176;1257;74046;-23
2023/10/12 14:43:36;;;;;;;7.60;2.90;;;;;;;21.66;44.10;98530.96;105246;1260;73054;-24
2023/10/12 14:46:04;;;;;;;9.30;3.10;;;;;;;21.59;44.15;98532.07;105217;1261;72696;-23
2023/10/12 14:48:32;;;;;;;8.00;2.20;;;;;;;21.52;44.40;98536.25;105305;1260;61160;-23
2023/10/12 14:51:09;;;;;;;8.40;2.80;;;;;;;21.46;44.63;98536.70;105298;1262;61144;-23
2023/10/12 14:53:36;;;;;;;8.40;2.30;;;;;;;21.36;44.78;98542.94;105300;1258;73837;-24
2023/10/12 14:56:03;;;;;;;8.40;2.60;;;;;;;21.22;45.18;98542.05;104980;1257;74346;-23
2023/10/12 14:58:51;;;;;;;8.80;2.60;;;;;;;21.09;45.47;98541.44;105099;1261;71865;-23
2023/10/12 15:01:20;;;;;;;7.50;2.30;;;;;;;20.96;45.78;98545.20;105120;1261;61324;-23
2023/10/12 15:03:47;;;;;;;5.80;2.70;;;;;;;20.79;46.19;98551.99;104989;1266;61255;-23
2023/10/12 15:06:14;;;;;;;7.60;2.50;;;;;;;20.66;46.57;98562.15;105022;1261;73906;-23
2023/10/12 15:08:42;;;;;;;8.00;3.10;;;;;;;20.51;46.97;98573.20;105177;1260;74147;-23